Main page
METAR-TAF:

METAR-TAF

Airports :

RAF Fairford

Fairford, England

latitude: 51-41N, longitude: 001-47W, elevation: 87 m

Current weather observation

The report was made 40 minutes ago, at 06:56 UTC
Wind 15 kt from the West/Northwest with gusts up to 21 kt
Temperature 11°C
Humidity 62%
Pressure 996 hPa
Visibility 10 km or more
Few clouds at a height of 12000 ft

METAR: EGVA 050656Z AUTO 30015G21KT 9999 FEW120 11/04 A2942 RMK AO2 SLP966 T01130038 $

Time: 08:36 (07:36 UTC)


TAF: missing

Weather observations and forecasts of more than 4000 airports (METAR and TAF reports).

The available stations are represented by yellow and red dots on the map.

Hover mouse over dot to see the name of the station.

Then click to see weather observations and forecasts.

To change the map : click on the green buttons with a black cross to zoom in, on the green button with a dash to zoom out, or on the green arrows for adjacent maps.


METAR-TAF: